Time;durP1;ratioP1;P1;durP2;ratioP2;P2;SDS_P1;SDS_P2;PMS_P1;PMS_P2;Temp;Humidity;BMP_temperature;BMP_pressure;BME280_temperature;BME280_humidity;BME280_pressure;Samples;Min_cycle;Max_cycle;Signal;HPM_P1;HPM_P2
2022/01/22 00:05:12;;;;;;;17.17;7.13;;;7.20;99.90;;;;;;5720868;23;20241;-83
2022/01/22 00:07:37;;;;;;;11.20;5.93;;;7.20;99.90;;;;;;4957713;28;20183;-83
2022/01/22 00:10:07;;;;;;;12.40;6.80;;;7.30;99.90;;;;;;4957671;28;20671;-83
2022/01/22 00:15:07;;;;;;;13.33;7.30;;;7.30;99.90;;;;;;4975051;28;20198;-84
2022/01/22 00:17:33;;;;;;;14.77;7.20;;;7.30;99.90;;;;;;4957412;28;20182;-83
2022/01/22 00:19:58;;;;;;;12.97;6.20;;;7.30;99.90;;;;;;4957707;28;20187;-83
2022/01/22 00:22:27;;;;;;;15.83;6.83;;;7.50;99.90;;;;;;4974766;28;20225;-83
2022/01/22 00:24:57;;;;;;;14.43;6.67;;;7.40;99.90;;;;;;4957657;28;20175;-83
2022/01/22 00:27:23;;;;;;;9.40;6.27;;;7.40;99.90;;;;;;4957539;28;20241;-86
2022/01/22 00:29:48;;;;;;;17.23;6.40;;;7.10;99.90;;;;;;4957679;28;20175;-83
2022/01/22 00:32:14;;;;;;;17.87;6.70;;;7.10;99.90;;;;;;4974694;28;20166;-82
2022/01/22 00:34:40;;;;;;;12.50;6.87;;;7.00;99.90;;;;;;4957382;28;20191;-82
2022/01/22 00:37:05;;;;;;;16.93;7.40;;;7.00;99.90;;;;;;4957195;28;20178;-83
2022/01/22 00:39:31;;;;;;;13.70;7.23;;;7.00;99.90;;;;;;4957267;28;20202;-83
2022/01/22 00:41:57;;;;;;;14.27;7.50;;;6.90;99.90;;;;;;4957337;28;20730;-83
2022/01/22 00:44:22;;;;;;;13.37;7.13;;;6.90;99.90;;;;;;4957136;28;20179;-83
2022/01/22 00:46:48;;;;;;;15.87;7.93;;;6.90;99.90;;;;;;4956902;28;20172;-83
2022/01/22 00:49:13;;;;;;;13.87;7.23;;;7.00;99.90;;;;;;4968077;28;20269;-83
2022/01/22 00:51:39;;;;;;;14.47;7.43;;;7.00;99.90;;;;;;4976401;28;20181;-83
2022/01/22 00:54:05;;;;;;;12.93;7.10;;;7.10;99.90;;;;;;4976384;28;20178;-84
2022/01/22 00:56:30;;;;;;;15.23;7.23;;;7.20;99.90;;;;;;4993924;28;20249;-83
2022/01/22 00:58:56;;;;;;;12.63;7.93;;;7.20;99.90;;;;;;4993720;28;20248;-82
2022/01/22 01:01:21;;;;;;;10.13;7.37;;;7.10;99.90;;;;;;4976416;28;20221;-83
2022/01/22 01:03:47;;;;;;;17.60;7.57;;;7.00;99.90;;;;;;4976119;28;20626;-83
2022/01/22 01:06:13;;;;;;;28.30;15.53;;;6.90;99.90;;;;;;4976175;28;20197;-83
2022/01/22 01:08:38;;;;;;;137.80;73.93;;;7.00;99.90;;;;;;4976516;28;20336;-83
2022/01/22 01:11:05;;;;;;;58.10;27.13;;;7.10;99.90;;;;;;4976454;28;20205;-82
2022/01/22 01:13:36;;;;;;;18.77;9.87;;;7.10;99.90;;;;;;4976201;28;20520;-83
2022/01/22 01:16:18;;;;;;;72.53;42.00;;;7.20;99.90;;;;;;4976394;28;20646;-82
2022/01/22 01:32:35;;;;;;;29.93;18.43;;;7.00;99.90;;;;;;4993853;28;20189;-85
2022/01/22 01:35:05;;;;;;;19.60;10.10;;;7.20;99.90;;;;;;4975735;28;20276;-84
2022/01/22 01:37:31;;;;;;;25.23;18.03;;;7.20;99.90;;;;;;4975818;28;20182;-83
2022/01/22 01:40:01;;;;;;;21.53;14.17;;;7.00;99.90;;;;;;4976052;28;20188;-84
2022/01/22 01:42:36;;;;;;;17.23;11.03;;;7.10;99.90;;;;;;4976167;28;20214;-83
2022/01/22 01:45:05;;;;;;;20.20;13.87;;;7.10;99.90;;;;;;4975622;28;20177;-82
2022/01/22 01:47:31;;;;;;;19.70;9.17;;;7.10;99.90;;;;;;4976159;28;20185;-85
2022/01/22 01:49:56;;;;;;;16.33;9.93;;;7.20;99.90;;;;;;4975433;28;20202;-84
2022/01/22 01:52:32;;;;;;;26.77;16.13;;;7.30;99.90;;;;;;4975861;28;20178;-84
2022/01/22 01:55:08;;;;;;;26.73;17.67;;;7.30;99.90;;;;;;4975737;28;20181;-85
2022/01/22 01:57:40;;;;;;;16.07;11.03;;;7.30;99.90;;;;;;4976060;28;20192;-83
2022/01/22 02:00:13;;;;;;;17.73;13.30;;;7.40;99.90;;;;;;4979397;28;20181;-85
2022/01/22 02:02:40;;;;;;;16.93;9.50;;;7.40;99.90;;;;;;4979479;28;20256;-84
2022/01/22 02:05:08;;;;;;;23.03;14.43;;;7.30;99.90;;;;;;4979038;28;20201;-84
2022/01/22 02:07:37;;;;;;;21.97;14.10;;;7.40;99.90;;;;;;4979414;28;20557;-85
2022/01/22 02:10:04;;;;;;;29.87;18.47;;;7.30;99.90;;;;;;4979270;28;20209;-84
2022/01/22 02:23:41;;;;;;;16.57;10.90;;;7.40;99.90;;;;;;4996595;28;20303;-84
2022/01/22 02:26:09;;;;;;;17.10;10.60;;;7.40;99.90;;;;;;4996391;28;20201;-83
2022/01/22 02:28:35;;;;;;;16.97;10.90;;;7.40;99.90;;;;;;4979421;28;20701;-84
2022/01/22 02:31:12;;;;;;;17.90;10.13;;;7.40;99.90;;;;;;4978835;28;20187;-84
2022/01/22 02:33:48;;;;;;;19.60;13.90;;;7.50;99.90;;;;;;4996268;28;20626;-84
2022/01/22 02:36:23;;;;;;;24.13;13.67;;;7.50;99.90;;;;;;4996244;28;20639;-85
2022/01/22 02:41:18;;;;;;;17.70;13.10;;;7.40;99.90;;;;;;4996160;28;20522;-84
2022/01/22 02:43:46;;;;;;;16.00;10.07;;;7.40;99.90;;;;;;4978786;28;20772;-84
2022/01/22 02:46:14;;;;;;;18.00;12.67;;;7.30;99.90;;;;;;4978809;28;20210;-84
2022/01/22 02:48:39;;;;;;;18.63;10.13;;;7.30;99.90;;;;;;4996235;28;20244;-84
2022/01/22 02:51:05;;;;;;;20.40;11.40;;;7.10;99.90;;;;;;4995767;28;20190;-84
2022/01/22 02:53:31;;;;;;;20.50;13.70;;;7.10;99.90;;;;;;4996035;28;20182;-84
2022/01/22 02:55:57;;;;;;;19.33;11.20;;;7.10;99.90;;;;;;4978703;28;20641;-84
2022/01/22 02:58:24;;;;;;;20.93;12.33;;;7.20;99.90;;;;;;4978485;28;20529;-84
2022/01/22 03:00:49;;;;;;;30.00;24.23;;;7.20;99.90;;;;;;4995843;28;20166;-84
2022/01/22 03:03:15;;;;;;;26.53;16.03;;;7.40;99.90;;;;;;4978574;28;20292;-84
2022/01/22 03:05:41;;;;;;;22.50;15.63;;;7.30;99.90;;;;;;4978403;28;20238;-84
2022/01/22 03:08:09;;;;;;;16.07;10.77;;;7.40;99.90;;;;;;4978235;28;20183;-83
2022/01/22 03:10:36;;;;;;;24.17;15.20;;;7.50;99.90;;;;;;4977846;28;20233;-82
2022/01/22 03:16:03;;;;;;;22.90;11.83;;;7.40;99.90;;;;;;4995735;28;20224;-84
2022/01/22 03:29:09;;;;;;;21.63;13.17;;;7.30;99.90;;;;;;4995626;28;20236;-84
2022/01/22 03:31:36;;;;;;;22.70;12.07;;;7.40;99.90;;;;;;4977680;28;20264;-84
2022/01/22 03:34:02;;;;;;;34.67;24.33;;;7.40;99.90;;;;;;4995328;28;20177;-84
2022/01/22 03:36:30;;;;;;;20.93;13.30;;;7.40;99.90;;;;;;4977983;28;20218;-84
2022/01/22 03:38:56;;;;;;;23.23;14.17;;;7.30;99.90;;;;;;4977868;28;20185;-83
2022/01/22 03:41:23;;;;;;;21.23;12.83;;;7.30;99.90;;;;;;4977822;28;20178;-84
2022/01/22 03:43:50;;;;;;;19.87;12.63;;;7.30;99.90;;;;;;4977649;28;20252;-84
2022/01/22 03:46:16;;;;;;;18.40;13.03;;;7.20;99.90;;;;;;4994725;28;20198;-84
2022/01/22 03:48:41;;;;;;;22.80;13.87;;;7.20;99.90;;;;;;4977478;28;20720;-84
2022/01/22 03:51:07;;;;;;;24.43;14.13;;;7.20;99.90;;;;;;4977758;28;20178;-85
2022/01/22 03:53:33;;;;;;;23.53;14.17;;;7.30;99.90;;;;;;4977442;28;20179;-84
2022/01/22 03:58:27;;;;;;;20.27;12.83;;;7.30;99.90;;;;;;4994933;28;20238;-83
2022/01/22 04:01:07;;;;;;;21.20;12.87;;;7.30;99.90;;;;;;4994715;28;20175;-85
2022/01/22 04:03:38;;;;;;;22.97;13.80;;;7.40;99.90;;;;;;4994614;28;20211;-83
2022/01/22 04:08:31;;;;;;;23.53;14.23;;;7.50;99.90;;;;;;4994435;28;20189;-85
2022/01/22 04:10:57;;;;;;;25.20;13.30;;;7.50;99.90;;;;;;4994373;28;20575;-84
2022/01/22 04:13:30;;;;;;;24.43;14.23;;;7.40;99.90;;;;;;4976847;28;20549;-83
2022/01/22 04:15:56;;;;;;;23.30;14.20;;;7.40;99.90;;;;;;4994713;28;20162;-84
2022/01/22 04:26:52;;;;;;;22.70;13.83;;;7.70;99.90;;;;;;4994750;28;20273;-84
2022/01/22 04:29:18;;;;;;;24.07;14.10;;;7.60;99.90;;;;;;4976522;28;20261;-84
2022/01/22 04:31:44;;;;;;;29.47;14.70;;;7.60;99.90;;;;;;4976646;28;20239;-84
2022/01/22 04:34:09;;;;;;;20.43;14.17;;;7.70;99.90;;;;;;4994035;28;20723;-84
2022/01/22 04:36:36;;;;;;;29.17;15.23;;;7.60;99.90;;;;;;4977101;28;20197;-84
2022/01/22 04:39:03;;;;;;;27.37;14.23;;;7.70;99.90;;;;;;4976459;28;20186;-85
2022/01/22 04:41:29;;;;;;;29.03;15.70;;;7.70;99.90;;;;;;4976722;28;20197;-87
2022/01/22 04:43:59;;;;;;;25.13;14.40;;;7.50;99.90;;;;;;4975957;28;20183;-84
2022/01/22 04:46:47;;;;;;;25.23;14.70;;;7.50;99.90;;;;;;4994095;28;20186;-85
2022/01/22 04:52:27;;;;;;;26.73;15.03;;;7.60;99.90;;;;;;4993509;28;20300;-84
2022/01/22 04:57:31;;;;;;;25.37;15.37;;;7.70;99.90;;;;;;4993867;28;20711;-85
2022/01/22 04:59:57;;;;;;;25.27;15.03;;;7.70;99.90;;;;;;4976390;28;20175;-84
2022/01/22 05:02:22;;;;;;;31.67;16.23;;;7.70;99.90;;;;;;4993784;28;20266;-84
2022/01/22 05:04:48;;;;;;;26.13;15.97;;;7.70;99.90;;;;;;4993420;28;20190;-84
2022/01/22 05:07:14;;;;;;;29.53;17.00;;;7.90;99.90;;;;;;4993513;28;20185;-84
2022/01/22 05:09:40;;;;;;;27.33;15.83;;;7.90;99.90;;;;;;4976256;28;20273;-84
2022/01/22 05:12:07;;;;;;;32.50;16.17;;;7.70;99.90;;;;;;4976194;28;20182;-83
2022/01/22 05:14:33;;;;;;;32.83;17.33;;;7.60;99.90;;;;;;4976110;28;20181;-83
2022/01/22 05:17:01;;;;;;;32.97;18.00;;;7.60;99.90;;;;;;4993640;28;20644;-84
2022/01/22 05:21:56;;;;;;;30.50;16.37;;;7.50;99.90;;;;;;4993835;28;20329;-84
2022/01/22 05:24:27;;;;;;;31.30;18.07;;;7.50;99.90;;;;;;4975989;28;20205;-84
2022/01/22 05:27:22;;;;;;;32.73;17.47;;;7.50;99.90;;;;;;4976079;28;20185;-84
2022/01/22 05:32:55;;;;;;;29.20;17.53;;;7.40;99.90;;;;;;4993857;28;20178;-84
2022/01/22 05:38:07;;;;;;;33.30;18.77;;;7.50;99.90;;;;;;4997769;28;20245;-84
2022/01/22 05:40:33;;;;;;;32.80;17.83;;;7.50;99.90;;;;;;4979675;28;20179;-84
2022/01/22 05:42:58;;;;;;;29.80;17.70;;;7.50;99.90;;;;;;4980125;28;20236;-84
2022/01/22 05:45:25;;;;;;;29.73;17.83;;;7.50;99.90;;;;;;4979981;28;20634;-84
2022/01/22 05:47:51;;;;;;;33.20;18.53;;;7.50;99.90;;;;;;4979825;28;20730;-84
2022/01/22 05:53:14;;;;;;;31.33;18.63;;;7.50;99.90;;;;;;4997668;28;20194;-84
2022/01/22 05:59:35;;;;;;;37.23;18.93;;;7.60;99.90;;;;;;4979310;28;20181;-84
2022/01/22 06:01:14;;;;;;;32.70;18.37;;;7.60;99.90;;;;;;4997286;28;20640;-84
2022/01/22 06:03:40;;;;;;;32.67;18.77;;;7.70;99.90;;;;;;4979539;28;20264;-83
2022/01/22 06:06:06;;;;;;;31.30;18.63;;;7.70;99.90;;;;;;4979274;28;20288;-84
2022/01/22 06:08:40;;;;;;;31.83;18.27;;;7.60;99.90;;;;;;4979621;28;20179;-85
2022/01/22 06:11:10;;;;;;;36.37;19.93;;;7.50;99.90;;;;;;4979139;28;20185;-83
2022/01/22 06:13:46;;;;;;;32.00;17.83;;;7.50;99.90;;;;;;4979302;28;20173;-83
2022/01/22 06:16:14;;;;;;;35.93;18.83;;;7.50;99.90;;;;;;4979145;28;20178;-84
2022/01/22 06:18:40;;;;;;;36.07;19.87;;;7.50;99.90;;;;;;4979334;28;20552;-85
2022/01/22 06:21:08;;;;;;;32.90;18.60;;;7.50;99.90;;;;;;4979284;28;20282;-84
2022/01/22 06:23:35;;;;;;;36.43;19.73;;;7.40;99.90;;;;;;4979127;28;20705;-85
2022/01/22 06:26:00;;;;;;;31.43;19.50;;;7.30;99.90;;;;;;4979086;28;20191;-85
2022/01/22 06:28:30;;;;;;;32.37;19.23;;;7.40;99.90;;;;;;4979009;28;20186;-84
2022/01/22 06:30:57;;;;;;;34.40;19.00;;;7.50;99.90;;;;;;4979102;28;20174;-84
2022/01/22 06:33:23;;;;;;;37.17;18.93;;;7.50;99.90;;;;;;4978823;28;20170;-83
2022/01/22 06:35:49;;;;;;;33.87;19.77;;;7.40;99.90;;;;;;4996700;28;20187;-84
2022/01/22 06:38:15;;;;;;;35.20;19.53;;;7.40;99.90;;;;;;4979101;28;20189;-84
2022/01/22 06:43:06;;;;;;;34.20;19.13;;;7.50;99.90;;;;;;4996595;28;20260;-84
2022/01/22 06:45:32;;;;;;;30.37;19.30;;;7.50;99.90;;;;;;4978036;28;20185;-85
2022/01/22 06:47:59;;;;;;;36.93;20.50;;;7.40;99.90;;;;;;4978705;28;20663;-84
2022/01/22 06:50:24;;;;;;;39.23;19.87;;;7.50;99.90;;;;;;4978805;28;20208;-84
2022/01/22 06:52:58;;;;;;;33.13;19.93;;;7.50;99.90;;;;;;4978431;28;20217;-84
2022/01/22 06:55:37;;;;;;;38.57;19.93;;;7.50;99.90;;;;;;4996114;28;20182;-84
2022/01/22 06:58:03;;;;;;;41.67;20.17;;;7.50;99.90;;;;;;4978656;28;20184;-84
2022/01/22 07:00:28;;;;;;;36.13;20.13;;;7.50;99.90;;;;;;4978445;28;20168;-84
2022/01/22 07:02:54;;;;;;;34.80;18.37;;;7.50;99.90;;;;;;4978619;28;20617;-84
2022/01/22 07:05:20;;;;;;;34.70;18.63;;;7.50;99.90;;;;;;4978608;28;20210;-84
2022/01/22 07:07:45;;;;;;;37.33;19.77;;;7.60;99.90;;;;;;4995393;28;20212;-85
2022/01/22 07:10:11;;;;;;;35.93;19.50;;;7.70;99.90;;;;;;4978532;28;20178;-84
2022/01/22 07:12:36;;;;;;;31.57;19.00;;;7.70;99.90;;;;;;4978155;28;20240;-84
2022/01/22 07:15:03;;;;;;;33.27;19.10;;;7.70;99.90;;;;;;4978099;28;20184;-84
2022/01/22 07:17:34;;;;;;;39.60;19.90;;;7.70;99.90;;;;;;4977761;28;20194;-84
2022/01/22 07:20:00;;;;;;;35.03;19.70;;;7.70;99.90;;;;;;4977676;28;20326;-84
2022/01/22 07:25:10;;;;;;;37.40;20.83;;;7.60;99.90;;;;;;4995569;28;20250;-85
2022/01/22 07:27:36;;;;;;;35.90;19.27;;;7.60;99.90;;;;;;4977438;28;20182;-84
2022/01/22 07:30:01;;;;;;;37.63;20.63;;;7.60;99.90;;;;;;4978427;28;20634;-84
2022/01/22 07:32:35;;;;;;;36.63;18.97;;;7.60;99.90;;;;;;4978115;28;20190;-84
2022/01/22 07:35:01;;;;;;;34.47;20.07;;;7.60;99.90;;;;;;4977144;28;20198;-82
2022/01/22 07:37:27;;;;;;;32.90;19.90;;;7.60;99.90;;;;;;4974586;28;20229;-85
2022/01/22 07:39:52;;;;;;;37.90;21.10;;;7.60;99.90;;;;;;4977780;28;20709;-85
2022/01/22 07:42:18;;;;;;;36.30;20.43;;;7.50;99.90;;;;;;4977684;28;20206;-84
2022/01/22 07:44:44;;;;;;;38.70;20.17;;;7.50;99.90;;;;;;4977147;28;20623;-84
2022/01/22 07:47:09;;;;;;;34.53;20.17;;;7.50;99.90;;;;;;4977091;28;20174;-84
2022/01/22 07:49:35;;;;;;;35.77;18.77;;;7.50;99.90;;;;;;4977146;28;20194;-84
2022/01/22 07:52:01;;;;;;;32.40;19.57;;;7.50;99.90;;;;;;4973620;28;20184;-85
2022/01/22 07:54:27;;;;;;;33.10;19.07;;;7.50;99.90;;;;;;4976972;28;20201;-83
2022/01/22 07:56:52;;;;;;;37.13;19.67;;;7.50;99.90;;;;;;4977196;28;20741;-83
2022/01/22 07:59:18;;;;;;;34.07;18.90;;;7.60;99.90;;;;;;4977320;28;20199;-83
2022/01/22 08:01:43;;;;;;;32.33;19.30;;;7.70;99.90;;;;;;4977370;28;20214;-84
2022/01/22 08:04:09;;;;;;;35.57;18.93;;;7.70;99.90;;;;;;4977072;28;20191;-83
2022/01/22 08:06:34;;;;;;;36.67;19.63;;;7.80;99.90;;;;;;4975941;28;20658;-83
2022/01/22 08:09:00;;;;;;;32.33;19.60;;;7.80;99.90;;;;;;4977145;28;20185;-84
2022/01/22 08:11:26;;;;;;;33.43;18.70;;;7.80;99.90;;;;;;4977201;28;20175;-83
2022/01/22 08:13:51;;;;;;;34.93;19.17;;;7.90;99.90;;;;;;4994083;28;20178;-83
2022/01/22 08:16:17;;;;;;;32.33;19.17;;;7.80;99.90;;;;;;4976974;28;20194;-83
2022/01/22 08:18:42;;;;;;;36.10;19.57;;;7.70;99.90;;;;;;4976925;28;20250;-83
2022/01/22 08:21:08;;;;;;;37.67;18.60;;;7.70;99.90;;;;;;4976561;28;20182;-83
2022/01/22 08:23:33;;;;;;;37.43;19.03;;;7.70;99.90;;;;;;4976344;28;20222;-83
2022/01/22 08:25:59;;;;;;;29.17;19.10;;;7.70;99.90;;;;;;4976823;28;20211;-82
2022/01/22 08:36:39;;;;;;;32.93;18.87;;;7.80;99.90;;;;;;4984032;28;20680;-83
2022/01/22 08:39:06;;;;;;;33.33;18.57;;;7.70;99.90;;;;;;4974495;28;20167;-83
2022/01/22 08:41:33;;;;;;;33.20;19.90;;;7.80;99.90;;;;;;4976629;28;20708;-84
2022/01/22 08:44:00;;;;;;;35.30;19.70;;;7.80;99.90;;;;;;4974834;28;20218;-82
2022/01/22 08:46:27;;;;;;;34.87;18.80;;;7.90;99.90;;;;;;4973002;28;20190;-83
2022/01/22 08:48:53;;;;;;;40.40;20.20;;;7.90;99.90;;;;;;4975928;28;20232;-84
2022/01/22 08:51:18;;;;;;;33.33;19.20;;;8.00;99.90;;;;;;4976188;28;20584;-85
2022/01/22 08:53:44;;;;;;;35.90;18.97;;;8.00;99.90;;;;;;4976039;28;20664;-83
2022/01/22 08:56:10;;;;;;;44.13;20.30;;;7.90;99.90;;;;;;4993644;28;20420;-83
2022/01/22 08:58:36;;;;;;;42.93;20.53;;;7.90;99.90;;;;;;4975945;28;20235;-83
2022/01/22 09:01:02;;;;;;;35.40;19.10;;;7.90;99.90;;;;;;4976232;28;20179;-83
2022/01/22 09:03:28;;;;;;;36.20;18.73;;;7.90;99.90;;;;;;4975716;28;20210;-83
2022/01/22 09:05:54;;;;;;;36.33;19.70;;;7.90;99.90;;;;;;4993376;28;20195;-83
2022/01/22 09:08:21;;;;;;;35.40;19.60;;;7.90;99.90;;;;;;4975463;28;20183;-83
2022/01/22 09:10:47;;;;;;;33.47;19.67;;;7.90;99.90;;;;;;4975559;28;20184;-83
2022/01/22 09:13:12;;;;;;;37.03;19.20;;;8.00;99.90;;;;;;4976336;28;20181;-83
2022/01/22 09:15:39;;;;;;;37.43;19.63;;;8.10;99.90;;;;;;4975757;28;20176;-83
2022/01/22 09:18:06;;;;;;;34.87;19.20;;;8.10;99.90;;;;;;4975409;28;20183;-84
2022/01/22 09:23:09;;;;;;;34.83;19.23;;;8.10;99.90;;;;;;4991668;28;20224;-87
2022/01/22 09:25:36;;;;;;;38.30;19.73;;;8.10;99.90;;;;;;4974518;28;20179;-87
2022/01/22 09:28:02;;;;;;;35.53;19.93;;;8.10;99.90;;;;;;4976731;28;20637;-87
2022/01/22 09:30:28;;;;;;;33.80;19.13;;;8.00;99.90;;;;;;4974653;28;20662;-86
2022/01/22 09:32:54;;;;;;;34.23;19.03;;;7.90;99.90;;;;;;4975965;28;20276;-87
2022/01/22 09:35:20;;;;;;;32.17;19.67;;;7.90;99.90;;;;;;4998230;28;20190;-86
2022/01/22 09:37:46;;;;;;;34.37;18.93;;;7.90;99.90;;;;;;4975624;28;20186;-86
2022/01/22 09:40:13;;;;;;;38.20;19.07;;;8.00;99.90;;;;;;4967633;28;20802;-87
2022/01/22 09:42:39;;;;;;;34.43;19.27;;;7.90;99.90;;;;;;4967881;28;20252;-86
2022/01/22 09:45:07;;;;;;;39.07;19.80;;;7.90;99.90;;;;;;4975593;28;20178;-86
2022/01/22 09:47:33;;;;;;;31.63;18.77;;;7.90;99.90;;;;;;4975322;28;20201;-86
2022/01/22 09:49:59;;;;;;;30.23;18.50;;;8.00;99.90;;;;;;4990646;28;20208;-86
2022/01/22 09:52:25;;;;;;;31.07;18.83;;;8.10;99.90;;;;;;4975377;28;20174;-86
2022/01/22 09:54:51;;;;;;;32.23;18.80;;;8.30;99.90;;;;;;4996336;28;20193;-87
2022/01/22 09:57:16;;;;;;;29.33;17.43;;;8.30;99.90;;;;;;4993159;28;20198;-87
2022/01/22 09:59:42;;;;;;;31.83;18.67;;;8.30;99.90;;;;;;4975925;28;20637;-87
2022/01/22 10:02:17;;;;;;;30.33;18.10;;;8.40;99.90;;;;;;4975016;28;20654;-87
2022/01/22 10:04:48;;;;;;;30.33;18.40;;;8.40;99.90;;;;;;4975394;28;20264;-87
2022/01/22 10:07:21;;;;;;;39.07;18.17;;;8.40;99.90;;;;;;4975828;28;20233;-86
2022/01/22 10:10:01;;;;;;;28.87;17.90;;;8.40;99.90;;;;;;4976063;28;20665;-87
2022/01/22 10:12:29;;;;;;;28.37;17.90;;;8.20;99.90;;;;;;4991677;28;20190;-87
2022/01/22 10:15:04;;;;;;;35.37;19.40;;;8.10;99.90;;;;;;4969462;28;20190;-87
2022/01/22 10:17:56;;;;;;;34.83;18.90;;;8.10;99.90;;;;;;4974301;28;20646;-87
2022/01/22 10:20:24;;;;;;;30.67;18.27;;;8.10;99.90;;;;;;4970482;28;20182;-87
2022/01/22 10:22:52;;;;;;;32.80;19.47;;;8.20;99.90;;;;;;4978017;28;20222;-85
2022/01/22 10:25:48;;;;;;;31.67;17.63;;;8.00;99.90;;;;;;4995252;28;20321;-87
2022/01/22 10:28:25;;;;;;;33.07;18.17;;;7.90;99.90;;;;;;4976808;28;20678;-85
2022/01/22 10:30:59;;;;;;;31.17;18.07;;;8.00;99.90;;;;;;4978141;28;20176;-85
2022/01/22 10:33:29;;;;;;;33.40;19.73;;;8.10;99.90;;;;;;4978929;28;20796;-85
2022/01/22 10:36:18;;;;;;;31.60;18.43;;;8.20;99.90;;;;;;4978987;28;20619;-86
2022/01/22 10:38:49;;;;;;;34.43;19.70;;;8.20;99.90;;;;;;4978177;28;20192;-86
2022/01/22 10:41:17;;;;;;;30.53;18.17;;;8.20;99.90;;;;;;4978358;28;20250;-86
2022/01/22 10:43:54;;;;;;;35.43;19.93;;;8.00;99.90;;;;;;4979576;28;20237;-85
2022/01/22 10:46:33;;;;;;;33.83;18.87;;;8.10;99.90;;;;;;4978250;28;20180;-85
2022/01/22 10:49:08;;;;;;;32.07;18.77;;;8.10;99.90;;;;;;4978078;28;20203;-85
2022/01/22 10:51:50;;;;;;;34.47;20.00;;;8.20;99.90;;;;;;4978810;28;20593;-84
2022/01/22 10:54:22;;;;;;;33.00;18.83;;;8.30;99.90;;;;;;4990843;28;20190;-85
2022/01/22 10:56:50;;;;;;;39.67;20.07;;;8.40;99.90;;;;;;4984791;28;20656;-84
2022/01/22 10:59:17;;;;;;;34.17;19.13;;;8.50;99.90;;;;;;4978025;28;20191;-86
2022/01/22 11:01:51;;;;;;;36.67;19.43;;;8.60;99.90;;;;;;4979466;28;20543;-85
2022/01/22 11:04:18;;;;;;;31.93;18.13;;;8.60;99.90;;;;;;4979834;28;20194;-85
2022/01/22 11:06:56;;;;;;;32.53;18.93;;;8.60;99.90;;;;;;4979324;28;20254;-86
2022/01/22 11:09:24;;;;;;;31.23;18.67;;;8.80;99.90;;;;;;4979260;28;20269;-86
2022/01/22 11:11:50;;;;;;;33.47;19.20;;;8.80;99.90;;;;;;4979244;28;20214;-84
2022/01/22 11:14:18;;;;;;;29.93;17.73;;;8.70;99.90;;;;;;4979311;28;20251;-85
2022/01/22 11:16:47;;;;;;;33.73;18.87;;;8.60;99.90;;;;;;4978969;28;20177;-85
2022/01/22 11:19:19;;;;;;;33.07;18.67;;;8.40;99.90;;;;;;4978957;28;20176;-85
2022/01/22 11:21:47;;;;;;;29.40;16.70;;;8.50;99.90;;;;;;4978955;28;20180;-87
2022/01/22 11:24:18;;;;;;;29.93;17.40;;;8.50;99.90;;;;;;4991054;28;20661;-86
2022/01/22 11:27:11;;;;;;;30.20;17.27;;;8.30;99.90;;;;;;5015801;28;20707;-83
2022/01/22 11:29:46;;;;;;;29.97;16.63;;;8.10;99.90;;;;;;5012376;28;20191;-85
2022/01/22 11:32:13;;;;;;;29.57;15.33;;;8.10;99.90;;;;;;4997950;28;20189;-85
2022/01/22 11:34:41;;;;;;;30.67;16.10;;;8.20;99.90;;;;;;5015627;28;20187;-85
2022/01/22 11:37:25;;;;;;;33.97;18.20;;;8.20;99.90;;;;;;4998154;28;20261;-85
2022/01/22 11:40:15;;;;;;;35.17;19.10;;;8.20;99.90;;;;;;4998036;28;20656;-85
2022/01/22 11:43:09;;;;;;;34.43;18.93;;;8.10;99.90;;;;;;4992037;28;20624;-86
2022/01/22 11:45:54;;;;;;;35.63;18.47;;;8.00;99.90;;;;;;4995991;28;20278;-87
2022/01/22 11:48:27;;;;;;;31.27;18.73;;;8.00;99.90;;;;;;4978488;28;20209;-86
2022/01/22 11:51:16;;;;;;;33.03;20.13;;;7.80;99.90;;;;;;4978585;28;20614;-86
2022/01/22 11:54:00;;;;;;;35.93;20.23;;;7.80;99.90;;;;;;4986731;28;20183;-86
2022/01/22 11:56:40;;;;;;;33.50;18.77;;;7.90;99.90;;;;;;4997996;28;20242;-92
2022/01/22 11:59:20;;;;;;;35.40;19.53;;;7.90;99.90;;;;;;4997795;28;20189;-87
2022/01/22 12:01:52;;;;;;;33.57;18.60;;;8.00;99.90;;;;;;4997827;28;20658;-85
2022/01/22 12:04:26;;;;;;;34.43;18.60;;;8.10;99.90;;;;;;4997862;28;20269;-86
2022/01/22 12:07:01;;;;;;;32.97;18.57;;;8.20;99.90;;;;;;4997711;28;20216;-86
2022/01/22 12:15:19;;;;;;;31.43;18.50;;;8.20;99.90;;;;;;4995680;28;20657;-87
2022/01/22 12:17:53;;;;;;;33.60;18.73;;;8.10;99.90;;;;;;4977449;28;20221;-86
2022/01/22 12:23:14;;;;;;;33.63;20.27;;;8.10;99.90;;;;;;4998051;28;20202;-87
2022/01/22 12:25:51;;;;;;;33.03;18.30;;;8.20;99.90;;;;;;4997561;28;20175;-87
2022/01/22 12:28:39;;;;;;;29.60;17.67;;;8.20;99.90;;;;;;4997062;28;20173;-87
2022/01/22 12:31:16;;;;;;;36.10;19.73;;;8.30;99.90;;;;;;4997075;28;20238;-85
2022/01/22 12:33:55;;;;;;;30.00;17.93;;;8.30;99.90;;;;;;4997074;28;20206;-87
2022/01/22 12:36:39;;;;;;;28.23;18.27;;;8.30;99.90;;;;;;4983354;28;20188;-87
2022/01/22 12:39:15;;;;;;;28.83;18.73;;;8.20;99.90;;;;;;4976384;28;20582;-86
2022/01/22 12:41:54;;;;;;;37.13;19.43;;;8.20;99.90;;;;;;4980930;28;20204;-86
2022/01/22 12:47:18;;;;;;;33.13;19.33;;;8.50;99.90;;;;;;4994910;28;20227;-86
2022/01/22 12:49:46;;;;;;;31.40;18.17;;;8.60;99.90;;;;;;4976037;28;20227;-87
2022/01/22 12:52:13;;;;;;;31.63;18.37;;;8.80;99.90;;;;;;4976549;28;20245;-88
2022/01/22 12:54:47;;;;;;;30.40;19.47;;;8.70;99.90;;;;;;4978234;28;20274;-87
2022/01/22 12:57:15;;;;;;;40.17;20.90;;;8.60;99.90;;;;;;4976802;28;20216;-85
2022/01/22 13:00:11;;;;;;;38.90;21.63;;;8.40;99.90;;;;;;4977369;28;20202;-86
2022/01/22 13:02:42;;;;;;;39.47;21.57;;;8.30;99.90;;;;;;4975646;28;20302;-86
2022/01/22 13:05:10;;;;;;;37.87;20.80;;;8.20;99.90;;;;;;4976982;28;20397;-86
2022/01/22 13:07:46;;;;;;;38.10;20.23;;;8.30;99.90;;;;;;4977933;28;20282;-86
2022/01/22 13:10:12;;;;;;;32.00;20.27;;;8.40;99.90;;;;;;4958464;28;20187;-86
2022/01/22 13:12:44;;;;;;;35.17;20.63;;;8.50;99.90;;;;;;4957859;28;20237;-87
2022/01/22 13:15:11;;;;;;;32.53;19.73;;;8.40;99.90;;;;;;4969162;28;20186;-85
2022/01/22 13:17:39;;;;;;;34.50;20.80;;;8.30;99.90;;;;;;4973872;28;20661;-86
2022/01/22 13:20:06;;;;;;;33.77;19.50;;;8.30;99.90;;;;;;4971920;28;20272;-87
2022/01/22 13:22:45;;;;;;;33.83;20.00;;;8.40;99.90;;;;;;4965427;28;20681;-87
2022/01/22 13:25:18;;;;;;;35.37;19.60;;;8.50;99.90;;;;;;4973683;28;20250;-85
2022/01/22 13:28:10;;;;;;;29.53;19.40;;;8.50;99.90;;;;;;4976237;28;20230;-86
2022/01/22 13:30:43;;;;;;;35.50;20.53;;;8.30;99.90;;;;;;4975600;28;20714;-85
2022/01/22 13:33:17;;;;;;;34.57;19.50;;;8.30;99.90;;;;;;4976820;28;20186;-86
2022/01/22 13:39:18;;;;;;;34.07;19.67;;;8.30;99.90;;;;;;4961305;28;20195;-84
2022/01/22 13:47:44;;;;;;;32.60;20.40;;;8.40;99.90;;;;;;4989146;28;20197;-86
2022/01/22 13:50:10;;;;;;;36.87;20.60;;;8.50;99.90;;;;;;4960080;28;20168;-86
2022/01/22 13:52:36;;;;;;;35.17;21.00;;;8.60;99.90;;;;;;4965701;28;20171;-87
2022/01/22 13:55:04;;;;;;;33.77;21.03;;;8.60;99.90;;;;;;4978225;28;20198;-86
2022/01/22 13:57:35;;;;;;;34.73;20.70;;;8.60;99.90;;;;;;4982011;28;20170;-88
2022/01/22 14:00:10;;;;;;;36.27;21.43;;;8.50;99.90;;;;;;4980594;28;20179;-86
2022/01/22 14:03:04;;;;;;;33.00;19.73;;;8.50;99.90;;;;;;4980621;28;20624;-86
2022/01/22 14:05:29;;;;;;;34.83;21.20;;;8.50;99.90;;;;;;4980124;28;20207;-85
2022/01/22 14:08:08;;;;;;;31.83;20.93;;;8.50;99.90;;;;;;4980220;28;20538;-86
2022/01/22 14:10:35;;;;;;;32.53;20.67;;;8.60;99.90;;;;;;4980194;28;20265;-88
2022/01/22 14:13:10;;;;;;;31.43;20.33;;;8.60;99.90;;;;;;4976122;28;20183;-85
2022/01/22 14:15:41;;;;;;;37.47;21.03;;;8.80;99.90;;;;;;4980099;28;20664;-86
2022/01/22 14:18:19;;;;;;;35.67;21.87;;;8.80;99.90;;;;;;4979977;28;20189;-86
2022/01/22 14:20:54;;;;;;;39.37;20.43;;;8.70;99.90;;;;;;4980414;28;20171;-86
2022/01/22 14:23:23;;;;;;;32.23;20.30;;;8.70;99.90;;;;;;4981177;28;20250;-86
2022/01/22 14:26:00;;;;;;;31.10;19.47;;;8.70;99.90;;;;;;4979484;28;20183;-86
2022/01/22 14:29:08;;;;;;;34.67;20.73;;;8.70;99.90;;;;;;4972352;28;20601;-86
2022/01/22 14:31:34;;;;;;;36.77;21.43;;;8.80;99.90;;;;;;4965189;28;20183;-88
2022/01/22 14:34:09;;;;;;;33.57;20.77;;;9.00;99.90;;;;;;4979858;28;20173;-86
2022/01/22 14:36:43;;;;;;;34.00;20.80;;;9.00;99.90;;;;;;4979631;28;20227;-87
2022/01/22 14:44:49;;;;;;;30.87;20.03;;;8.60;99.90;;;;;;4997164;28;20201;-86
2022/01/22 14:47:26;;;;;;;29.93;20.10;;;8.50;99.90;;;;;;4979994;28;20200;-87
2022/01/22 14:50:00;;;;;;;32.70;19.33;;;8.60;99.90;;;;;;4979736;28;20179;-85
2022/01/22 14:52:26;;;;;;;35.10;19.80;;;8.50;99.90;;;;;;4979323;28;20218;-86
2022/01/22 14:55:00;;;;;;;33.40;19.17;;;8.30;99.90;;;;;;4996789;28;20270;-86